createdAt,value
2022-09-28T00:00:18.983Z,95177.97
2022-09-28T00:05:21.742Z,95142.31
2022-09-28T00:10:23.893Z,95165.53
2022-09-28T00:15:26.259Z,95185.59
2022-09-28T00:20:28.774Z,95147.41
2022-09-28T00:25:32.303Z,95136.91
2022-09-28T00:30:34.386Z,95174.41
2022-09-28T00:35:36.518Z,95158.19
2022-09-28T00:40:38.820Z,95173.34
2022-09-28T00:45:41.163Z,95127.28
2022-09-28T00:50:44.020Z,95160.25
2022-09-28T00:55:55.039Z,95149.00
2022-09-28T01:00:59.294Z,95140.44
2022-09-28T01:06:04.223Z,95186.91
2022-09-28T01:11:06.508Z,95153.94
2022-09-28T01:16:35.117Z,95187.28
2022-09-28T01:22:23.431Z,95179.44
2022-09-28T01:27:32.676Z,95180.50
2022-09-28T01:32:40.804Z,95188.25
2022-09-28T01:37:57.216Z,95172.91
2022-09-28T01:43:05.800Z,95134.25
2022-09-28T01:48:11.075Z,95196.88
2022-09-28T01:53:29.234Z,95169.00
2022-09-28T01:59:01.442Z,95186.16
2022-09-28T02:04:18.200Z,95148.97
2022-09-28T02:09:33.691Z,95161.13
2022-09-28T02:14:41.035Z,95197.78
2022-09-28T02:19:44.343Z,95156.41
2022-09-28T02:24:56.735Z,95206.59
2022-09-28T02:30:06.221Z,95166.22
2022-09-28T02:35:11.895Z,95183.38
2022-09-28T02:40:20.948Z,95174.81
2022-09-28T02:45:48.656Z,95179.81
2022-09-28T02:51:06.687Z,95195.16
2022-09-28T02:56:38.552Z,95190.81
2022-09-28T03:02:04.542Z,95181.75
2022-09-28T03:07:22.677Z,95158.16
2022-09-28T03:12:26.515Z,95160.47
2022-09-28T03:17:28.889Z,95185.94
2022-09-28T03:22:31.259Z,95177.75
2022-09-28T03:27:33.605Z,95175.66
2022-09-28T03:32:37.299Z,95196.91
2022-09-28T03:37:39.920Z,95209.66
2022-09-28T03:42:44.163Z,95147.59
2022-09-28T03:47:47.515Z,95199.13
2022-09-28T03:52:54.231Z,95176.84
2022-09-28T03:58:04.028Z,95218.22
2022-09-28T04:03:06.378Z,95216.19
2022-09-28T04:08:08.766Z,95226.63
2022-09-28T04:13:11.068Z,95221.19
2022-09-28T04:18:15.378Z,95202.75
2022-09-28T04:23:53.472Z,95221.84
2022-09-28T04:29:15.069Z,95229.44
2022-09-28T04:34:23.440Z,95233.84
2022-09-28T04:39:25.685Z,95246.84
2022-09-28T04:44:30.833Z,95244.66
2022-09-28T04:49:38.593Z,95243.84
2022-09-28T04:54:53.200Z,95199.78
2022-09-28T04:59:55.564Z,95255.31
2022-09-28T05:04:59.181Z,95273.13
2022-09-28T05:10:20.254Z,95263.69
2022-09-28T05:15:22.629Z,95264.22
2022-09-28T05:20:24.981Z,95227.22
2022-09-28T05:25:27.459Z,95235.44
2022-09-28T05:30:50.846Z,95233.09
2022-09-28T05:36:16.209Z,95246.63
2022-09-28T05:41:18.732Z,95242.44
2022-09-28T05:46:22.064Z,95282.34
2022-09-28T05:51:25.566Z,95230.19
2022-09-28T05:56:31.027Z,95242.03
2022-09-28T06:01:33.356Z,95266.03
2022-09-28T06:06:38.680Z,95224.66
2022-09-28T06:11:41.046Z,95201.06
2022-09-28T06:17:05.975Z,95216.50
2022-09-28T06:22:09.003Z,95227.34
2022-09-28T06:27:19.962Z,95201.69
2022-09-28T06:32:22.383Z,95200.78
2022-09-28T06:37:26.353Z,95195.84
2022-09-28T06:42:28.689Z,95193.28
2022-09-28T06:48:01.105Z,95193.16
2022-09-28T06:53:19.867Z,95178.66
2022-09-28T06:58:32.615Z,95189.56
2022-09-28T07:03:58.168Z,95185.47
2022-09-28T07:09:32.425Z,95166.00
2022-09-28T07:14:47.512Z,95179.81
2022-09-28T07:19:52.879Z,95197.91
2022-09-28T07:24:55.347Z,95212.31
2022-09-28T07:30:16.417Z,95206.81
2022-09-28T07:35:36.808Z,95206.06
2022-09-28T07:40:57.602Z,95209.56
2022-09-28T07:46:01.416Z,95214.22
2022-09-28T07:51:05.034Z,95212.41
2022-09-28T07:56:12.322Z,95170.53
2022-09-28T08:01:37.241Z,95177.28
2022-09-28T08:06:40.734Z,95171.81
2022-09-28T08:11:45.335Z,95193.09
2022-09-28T08:16:58.729Z,95195.75
2022-09-28T08:22:18.596Z,95187.66
2022-09-28T08:27:28.951Z,95172.59
2022-09-28T08:32:32.970Z,95188.81
2022-09-28T08:37:55.799Z,95189.44
2022-09-28T08:43:38.590Z,95201.31
2022-09-28T08:49:25.322Z,95195.69
2022-09-28T08:54:54.831Z,95166.50
2022-09-28T09:00:11.044Z,95163.59
2022-09-28T09:05:19.378Z,95170.09
2022-09-28T09:11:02.174Z,95200.47
2022-09-28T09:16:30.204Z,95158.13
2022-09-28T09:22:10.312Z,95173.13
2022-09-28T09:28:02.524Z,95197.06
2022-09-28T09:33:28.797Z,95204.06
2022-09-28T09:38:55.999Z,95199.00
2022-09-28T09:44:28.674Z,95207.31
2022-09-28T09:50:17.676Z,95205.88
2022-09-28T09:55:34.735Z,95194.25
2022-09-28T10:01:14.808Z,95169.19
2022-09-28T10:06:50.116Z,95162.31
2022-09-28T10:11:54.324Z,95182.56
2022-09-28T10:16:59.460Z,95150.38
2022-09-28T10:22:25.402Z,95156.72
2022-09-28T10:27:35.000Z,95168.09
2022-09-28T10:32:44.872Z,95135.59
2022-09-28T10:38:06.978Z,95186.66
2022-09-28T10:43:36.916Z,95164.81
2022-09-28T10:48:46.186Z,95167.72
2022-09-28T10:54:01.870Z,95137.03
2022-09-28T10:59:41.031Z,95170.78
2022-09-28T11:05:22.016Z,95169.59
2022-09-28T11:10:28.938Z,95164.91
2022-09-28T11:15:42.879Z,95161.75
2022-09-28T11:20:49.118Z,95139.28
2022-09-28T11:26:03.006Z,95153.91
2022-09-28T11:31:08.224Z,95121.09
2022-09-28T11:36:40.244Z,95156.47
2022-09-28T11:42:01.147Z,95138.88
2022-09-28T11:47:24.707Z,95146.72
2022-09-28T11:52:34.208Z,95131.53
2022-09-28T11:57:41.135Z,95112.34
2022-09-28T12:02:49.761Z,95143.16
2022-09-28T12:07:59.575Z,95127.63
2022-09-28T12:13:33.496Z,95145.75
2022-09-28T12:18:54.113Z,95145.53
2022-09-28T12:24:04.194Z,95137.44
2022-09-28T12:29:15.763Z,95130.09
2022-09-28T12:34:18.697Z,95112.41
2022-09-28T12:39:59.416Z,95140.78
2022-09-28T12:45:24.062Z,95141.22
2022-09-28T12:51:01.697Z,95136.63
2022-09-28T12:56:31.583Z,95136.81
2022-09-28T13:01:55.342Z,95140.34
2022-09-28T13:07:09.985Z,95128.94
2022-09-28T13:12:19.538Z,95121.50
2022-09-28T13:17:45.912Z,95135.53
2022-09-28T13:23:16.021Z,95131.72
2022-09-28T13:28:26.249Z,95121.47
2022-09-28T13:33:37.021Z,95110.22
2022-09-28T13:38:49.689Z,95122.06
2022-09-28T13:44:21.165Z,95128.41
2022-09-28T13:49:23.395Z,95138.22
2022-09-28T13:54:50.709Z,95133.66
2022-09-28T13:59:54.593Z,95130.28
2022-09-28T14:04:58.023Z,95094.81
2022-09-28T14:10:24.788Z,95151.47
2022-09-28T14:15:30.054Z,95142.13
2022-09-28T14:20:35.357Z,95137.00
2022-09-28T14:26:03.595Z,95138.53
2022-09-28T14:31:15.526Z,95142.22
2022-09-28T14:37:00.326Z,95148.16
2022-09-28T14:42:10.804Z,95170.88
2022-09-28T14:47:35.136Z,95162.84
2022-09-28T14:52:46.613Z,95151.16
2022-09-28T14:57:55.391Z,95152.16
2022-09-28T15:03:06.729Z,95165.38
2022-09-28T15:08:12.268Z,95165.25
2022-09-28T15:13:25.065Z,95166.88
2022-09-28T15:18:30.403Z,95179.94
2022-09-28T15:23:43.254Z,95184.56
2022-09-28T15:28:45.655Z,95187.84
2022-09-28T15:34:06.845Z,95182.00
2022-09-28T15:39:28.117Z,95208.53
2022-09-28T15:44:35.590Z,95201.06
2022-09-28T15:49:58.834Z,95194.44
2022-09-28T15:55:06.438Z,95220.38
2022-09-28T16:00:28.489Z,95224.16
2022-09-28T16:05:43.208Z,95218.44
2022-09-28T16:11:03.315Z,95229.00
2022-09-28T16:16:05.835Z,95202.97
2022-09-28T16:21:35.590Z,95233.28
2022-09-28T16:26:39.080Z,95237.41
2022-09-28T16:31:44.507Z,95230.63
2022-09-28T16:36:50.062Z,95251.78
2022-09-28T16:42:00.405Z,95252.22
2022-09-28T16:47:03.385Z,95250.81
2022-09-28T16:52:15.590Z,95265.63
2022-09-28T16:57:19.264Z,95262.66
2022-09-28T17:07:50.032Z,95276.72
2022-09-28T17:13:23.842Z,95287.22
2022-09-28T17:18:28.534Z,95277.22
2022-09-28T17:28:49.505Z,95277.63
2022-09-28T17:33:54.965Z,95281.34
2022-09-28T17:39:00.233Z,95289.94
2022-09-28T17:44:03.677Z,95297.84
2022-09-28T17:54:39.013Z,95297.06
2022-09-28T17:59:46.360Z,95296.91
2022-09-28T18:04:52.440Z,95290.09
2022-09-28T18:15:27.731Z,95296.50
2022-09-28T18:20:53.472Z,95300.66
2022-09-28T18:25:56.172Z,95302.56
2022-09-28T18:31:09.065Z,95270.25
2022-09-28T18:36:13.895Z,95309.53
2022-09-28T18:41:16.648Z,95296.47
2022-09-28T18:46:19.428Z,95299.09
2022-09-28T18:51:23.462Z,95294.78
2022-09-28T18:56:27.029Z,95283.50
2022-09-28T19:01:31.852Z,95310.78
2022-09-28T19:06:37.045Z,95319.19
2022-09-28T19:11:45.504Z,95311.66
2022-09-28T19:16:54.373Z,95312.97
2022-09-28T19:22:00.769Z,95342.25
2022-09-28T19:27:08.752Z,95319.91
2022-09-28T19:32:13.271Z,95330.56
2022-09-28T19:37:15.868Z,95342.25
2022-09-28T19:42:19.793Z,95346.66
2022-09-28T19:47:26.830Z,95348.22
2022-09-28T19:52:38.019Z,95320.44
2022-09-28T19:57:41.337Z,95344.06
2022-09-28T20:02:46.629Z,95346.97
2022-09-28T20:07:52.736Z,95313.53
2022-09-28T20:12:55.647Z,95337.75
2022-09-28T20:17:59.041Z,95358.91
2022-09-28T20:23:02.357Z,95348.25
2022-09-28T20:28:05.686Z,95359.66
2022-09-28T20:33:08.432Z,95366.00
2022-09-28T20:38:13.624Z,95356.81
2022-09-28T20:43:16.962Z,95367.78
2022-09-28T20:48:21.041Z,95350.28
2022-09-28T20:53:24.535Z,95348.34
2022-09-28T20:58:28.032Z,95355.41
2022-09-28T21:03:31.755Z,95355.16
2022-09-28T21:08:36.951Z,95352.16
2022-09-28T21:13:43.073Z,95352.09
2022-09-28T21:18:45.512Z,95341.19
2022-09-28T21:23:47.738Z,95323.44
2022-09-28T21:28:56.829Z,95354.34
2022-09-28T21:34:04.857Z,95356.66
2022-09-28T21:39:10.346Z,95331.03
2022-09-28T21:44:17.959Z,95325.25
2022-09-28T21:49:21.343Z,95342.81
2022-09-28T21:54:46.795Z,95318.53
2022-09-28T21:59:50.837Z,95323.28
2022-09-28T22:04:54.335Z,95326.16
2022-09-28T22:09:56.690Z,95333.72
2022-09-28T22:14:58.937Z,95319.81
2022-09-28T22:20:03.817Z,95305.41
2022-09-28T22:25:08.679Z,95327.34
2022-09-28T22:30:11.217Z,95323.31
2022-09-28T22:35:13.550Z,95328.16
2022-09-28T22:40:18.512Z,95305.81
2022-09-28T22:45:23.627Z,95331.78
2022-09-28T22:50:25.936Z,95307.47
2022-09-28T22:55:29.172Z,95314.19
2022-09-28T23:00:31.455Z,95335.25
2022-09-28T23:05:33.561Z,95294.50
2022-09-28T23:10:35.710Z,95303.28
2022-09-28T23:15:37.834Z,95303.47
2022-09-28T23:20:40.865Z,95293.69
2022-09-28T23:25:43.119Z,95298.28
2022-09-28T23:30:45.298Z,95309.50
2022-09-28T23:35:47.437Z,95319.53
2022-09-28T23:40:52.422Z,95324.63
2022-09-28T23:45:54.566Z,95307.38
2022-09-28T23:50:58.722Z,95314.00
2022-09-28T23:56:01.138Z,95291.22
